Terminal Aerodrome Forecast
Issued by NWS

Home | Current Version | Previous Version | Text Only | Print | Product List | Glossary Off
Versions: 1 2 3 4 5 6 7 8 9 10 11 12 13 14 15 16 17 18 19 20 21

000
FTUS43 KMPX 301000 AAA
TAFRWF
TAF AMD
KRWF 301000Z 3010/0106 09009KT P6SM BKN007
      TEMPO 3010/3012 OVC005
     FM301500 13012G19KT P6SM BKN012 OVC100
     FM301900 13014G21KT P6SM BKN025 BKN050
     FM302100 14015G23KT 6SM -RA BR OVC030
      TEMPO 0100/0104 4SM -RA BR OVC020
     FM010400 15012KT P6SM SCT030 BKN050=

USA.gov is the U.S. government's official web portal to all federal, state and local government web resources and services.